METAR Data

Data at: 2335 UTC 26 Feb 2020

METAR for:KUUU (Newport State Arpt, RI, US)
Text:KUUU 262253Z AUTO 05009KT 10SM OVC014 08/04 A2991 RMK AO2 SLP129 T00830044
Temperature: 8.3°C ( 47°F)
Dewpoint: 4.4°C ( 40°F) [RH = 76%]
Pressure (altimeter):29.91 inches Hg (1013.0 mb) [Sea level pressure: 1012.9 mb]
Winds:from the NE (50 degrees) at 10 MPH (9 knots; 4.6 m/s)
Visibility:10 or more sm (16+ km)
Ceiling:1400 feet AGL
Clouds: overcast cloud deck at 1400 feet AGL
QC Flag:automated observation with no human augmentation